createdAt,value
2023-05-14T00:01:10.366Z,8.49
2023-05-14T00:04:16.003Z,8.49
2023-05-14T00:07:31.005Z,8.47
2023-05-14T00:10:36.831Z,8.33
2023-05-14T00:13:43.245Z,8.39
2023-05-14T00:16:48.792Z,8.32
2023-05-14T00:19:55.139Z,8.27
2023-05-14T00:23:04.718Z,8.25
2023-05-14T00:26:11.118Z,8.15
2023-05-14T00:29:17.492Z,8.16
2023-05-14T00:32:23.888Z,8.10
2023-05-14T00:35:29.407Z,7.98
2023-05-14T00:38:38.599Z,7.89
2023-05-14T00:41:44.052Z,7.83
2023-05-14T00:44:50.532Z,7.85
2023-05-14T00:47:58.141Z,7.82
2023-05-14T00:51:04.666Z,7.76
2023-05-14T00:54:13.280Z,7.72
2023-05-14T00:57:19.901Z,7.66
2023-05-14T01:00:26.518Z,7.57
2023-05-14T01:03:35.636Z,7.50
2023-05-14T01:07:05.553Z,7.49
2023-05-14T01:10:24.824Z,7.45
2023-05-14T01:13:48.217Z,7.25
2023-05-14T01:17:02.575Z,7.47
2023-05-14T01:20:10.134Z,7.51
2023-05-14T01:23:21.457Z,7.54
2023-05-14T01:26:27.215Z,7.54
2023-05-14T01:29:40.282Z,7.51
2023-05-14T01:32:56.844Z,7.50
2023-05-14T01:36:05.164Z,7.49
2023-05-14T01:39:18.497Z,7.44
2023-05-14T01:42:26.240Z,7.44
2023-05-14T01:45:31.718Z,7.43
2023-05-14T01:48:38.115Z,7.30
2023-05-14T01:51:43.686Z,7.34
2023-05-14T01:54:53.411Z,7.34
2023-05-14T01:57:59.157Z,7.33
2023-05-14T02:01:05.685Z,7.30
2023-05-14T02:04:11.820Z,7.28
2023-05-14T02:07:21.127Z,7.28
2023-05-14T02:10:29.460Z,7.28
2023-05-14T02:13:35.850Z,7.30
2023-05-14T02:16:41.320Z,7.29
2023-05-14T02:19:47.744Z,7.27
2023-05-14T02:22:53.359Z,7.16
2023-05-14T02:26:03.391Z,7.17
2023-05-14T02:29:08.905Z,7.05
2023-05-14T02:32:15.265Z,6.98
2023-05-14T02:35:20.737Z,6.97
2023-05-14T02:38:29.525Z,6.93
2023-05-14T02:41:38.088Z,6.90
2023-05-14T02:44:45.206Z,6.83
2023-05-14T02:47:50.689Z,6.89
2023-05-14T02:50:57.209Z,6.92
2023-05-14T02:54:02.791Z,6.91
2023-05-14T02:57:12.348Z,6.83
2023-05-14T03:00:18.808Z,6.91
2023-05-14T03:03:25.758Z,6.90
2023-05-14T03:06:31.825Z,6.90
2023-05-14T03:09:38.519Z,6.90
2023-05-14T03:12:47.652Z,6.88
2023-05-14T03:15:55.162Z,6.87
2023-05-14T03:19:01.058Z,6.87
2023-05-14T03:22:07.954Z,6.81
2023-05-14T03:25:13.617Z,6.88
2023-05-14T03:28:22.783Z,6.90
2023-05-14T03:31:28.443Z,6.94
2023-05-14T03:34:37.102Z,6.88
2023-05-14T03:37:42.589Z,7.01
2023-05-14T03:40:49.379Z,7.05
2023-05-14T03:43:57.705Z,7.10
2023-05-14T03:47:04.068Z,7.10
2023-05-14T03:50:11.865Z,7.19
2023-05-14T03:53:18.867Z,7.30
2023-05-14T03:56:25.086Z,7.30
2023-05-14T03:59:35.284Z,7.41
2023-05-14T04:02:40.865Z,7.50
2023-05-14T04:05:47.629Z,7.53
2023-05-14T04:08:53.099Z,7.53
2023-05-14T04:11:59.464Z,7.62
2023-05-14T04:15:10.161Z,7.66
2023-05-14T04:18:17.494Z,7.63
2023-05-14T04:21:22.977Z,7.56
2023-05-14T04:24:29.567Z,7.78
2023-05-14T04:27:36.975Z,7.67
2023-05-14T04:30:46.058Z,7.88
2023-05-14T04:33:51.527Z,7.92
2023-05-14T04:36:57.875Z,7.99
2023-05-14T04:40:03.613Z,8.08
2023-05-14T04:43:10.966Z,8.16
2023-05-14T04:46:19.572Z,8.20
2023-05-14T04:49:26.034Z,8.34
2023-05-14T04:52:31.862Z,8.42
2023-05-14T04:55:38.241Z,8.51
2023-05-14T04:58:43.834Z,8.62
2023-05-14T05:01:52.984Z,8.74
2023-05-14T05:04:58.467Z,8.80
2023-05-14T05:08:04.843Z,8.89
2023-05-14T05:11:10.392Z,9.01
2023-05-14T05:14:16.913Z,9.13
2023-05-14T05:17:25.223Z,9.24
2023-05-14T05:20:31.570Z,9.37
2023-05-14T05:23:37.006Z,9.47
2023-05-14T05:26:43.389Z,9.51
2023-05-14T05:29:49.128Z,9.52
2023-05-14T05:32:58.501Z,9.60
2023-05-14T05:36:04.329Z,9.63
2023-05-14T05:39:10.712Z,9.76
2023-05-14T05:42:16.176Z,9.88
2023-05-14T05:45:22.629Z,9.98
2023-05-14T05:48:31.061Z,10.05
2023-05-14T05:51:37.726Z,10.10
2023-05-14T05:54:43.188Z,10.12
2023-05-14T05:57:49.461Z,10.19
2023-05-14T06:00:55.390Z,10.27
2023-05-14T06:04:05.856Z,10.37
2023-05-14T06:07:11.524Z,10.54
2023-05-14T06:10:18.098Z,10.64
2023-05-14T06:13:23.757Z,10.67
2023-05-14T06:16:30.212Z,10.75
2023-05-14T06:19:38.598Z,10.87
2023-05-14T06:22:45.030Z,11.03
2023-05-14T06:25:50.860Z,11.20
2023-05-14T06:28:58.297Z,11.34
2023-05-14T06:32:07.030Z,11.47
2023-05-14T06:35:16.681Z,11.56
2023-05-14T06:38:22.245Z,11.03
2023-05-14T06:41:29.842Z,11.77
2023-05-14T06:44:36.512Z,11.83
2023-05-14T06:47:42.890Z,11.89
2023-05-14T06:50:52.822Z,11.85
2023-05-14T06:53:59.502Z,11.86
2023-05-14T06:57:05.011Z,11.77
2023-05-14T07:00:12.958Z,11.84
2023-05-14T07:03:37.670Z,11.94
2023-05-14T07:06:47.064Z,12.00
2023-05-14T07:09:52.738Z,12.12
2023-05-14T07:12:59.055Z,12.29
2023-05-14T07:16:04.539Z,12.49
2023-05-14T07:19:11.177Z,12.61
2023-05-14T07:22:19.563Z,12.71
2023-05-14T07:25:26.025Z,12.80
2023-05-14T07:28:31.519Z,12.86
2023-05-14T07:31:37.897Z,12.93
2023-05-14T07:34:43.668Z,13.02
2023-05-14T07:37:52.894Z,13.14
2023-05-14T07:40:58.764Z,13.24
2023-05-14T07:44:05.432Z,13.38
2023-05-14T07:47:11.164Z,13.45
2023-05-14T07:50:17.630Z,13.53
2023-05-14T07:53:26.563Z,13.60
2023-05-14T07:56:33.117Z,13.64
2023-05-14T07:59:38.671Z,13.66
2023-05-14T08:02:45.729Z,13.81
2023-05-14T08:05:52.086Z,13.93
2023-05-14T08:09:01.216Z,14.08
2023-05-14T08:12:08.306Z,14.24
2023-05-14T08:15:15.282Z,14.40
2023-05-14T08:18:20.880Z,14.57
2023-05-14T08:21:28.376Z,14.53
2023-05-14T08:24:36.917Z,14.57
2023-05-14T08:27:43.517Z,14.56
2023-05-14T08:30:49.044Z,14.53
2023-05-14T08:33:55.489Z,14.40
2023-05-14T08:37:01.049Z,14.39
2023-05-14T08:40:12.699Z,14.38
2023-05-14T08:43:29.668Z,14.38
2023-05-14T08:46:37.607Z,14.47
2023-05-14T08:49:46.813Z,14.55
2023-05-14T08:52:53.459Z,14.55
2023-05-14T08:56:06.425Z,14.60
2023-05-14T08:59:12.841Z,14.66
2023-05-14T09:02:20.932Z,14.71
2023-05-14T09:05:28.599Z,14.76
2023-05-14T09:08:36.592Z,14.79
2023-05-14T09:11:50.617Z,14.84
2023-05-14T09:14:56.212Z,14.83
2023-05-14T09:18:02.832Z,14.78
2023-05-14T09:21:08.661Z,14.85
2023-05-14T09:24:24.253Z,14.97
2023-05-14T09:27:36.671Z,14.96
2023-05-14T09:30:43.090Z,14.95
2023-05-14T09:33:54.529Z,15.05
2023-05-14T09:37:04.256Z,15.21
2023-05-14T09:40:11.201Z,15.31
2023-05-14T09:43:20.453Z,15.42
2023-05-14T09:46:30.384Z,15.53
2023-05-14T09:49:37.468Z,15.63
2023-05-14T09:52:43.127Z,15.64
2023-05-14T09:55:50.380Z,15.73
2023-05-14T09:58:59.096Z,15.78
2023-05-14T10:02:08.666Z,15.75
2023-05-14T10:05:16.621Z,15.67
2023-05-14T10:08:31.056Z,15.31
2023-05-14T10:11:41.696Z,15.72
2023-05-14T10:14:53.943Z,15.84
2023-05-14T10:18:04.021Z,15.94
2023-05-14T10:21:13.888Z,15.66
2023-05-14T10:24:21.521Z,16.19
2023-05-14T10:27:29.726Z,16.30
2023-05-14T10:30:38.278Z,16.38
2023-05-14T10:33:52.655Z,16.50
2023-05-14T10:37:01.737Z,16.64
2023-05-14T10:40:10.323Z,16.80
2023-05-14T10:43:17.928Z,16.91
2023-05-14T10:46:27.435Z,17.09
2023-05-14T10:49:43.042Z,17.13
2023-05-14T10:52:50.263Z,17.25
2023-05-14T10:55:59.009Z,17.35
2023-05-14T10:59:06.253Z,17.50
2023-05-14T11:02:24.745Z,17.56
2023-05-14T11:05:31.303Z,17.98
2023-05-14T11:08:37.414Z,18.26
2023-05-14T11:11:43.957Z,18.48
2023-05-14T11:14:50.728Z,18.73
2023-05-14T11:18:00.106Z,18.81
2023-05-14T11:21:06.909Z,19.14
2023-05-14T11:24:13.669Z,19.31
2023-05-14T11:27:21.265Z,19.49
2023-05-14T11:30:29.731Z,19.44
2023-05-14T11:33:39.440Z,19.63
2023-05-14T11:36:46.059Z,19.66
2023-05-14T11:39:54.146Z,19.62
2023-05-14T11:43:01.028Z,19.63
2023-05-14T11:46:06.861Z,19.73
2023-05-14T11:49:16.260Z,19.87
2023-05-14T11:52:22.361Z,20.03
2023-05-14T11:55:30.680Z,19.99
2023-05-14T11:58:37.199Z,20.10
2023-05-14T12:01:43.706Z,20.13
2023-05-14T12:04:55.095Z,20.28
2023-05-14T12:08:01.459Z,20.43
2023-05-14T12:11:07.325Z,20.52
2023-05-14T12:14:20.620Z,20.41
2023-05-14T12:17:26.944Z,20.26
2023-05-14T12:20:36.220Z,20.22
2023-05-14T12:23:42.670Z,20.23
2023-05-14T12:26:51.023Z,20.24
2023-05-14T12:30:19.873Z,20.28
2023-05-14T12:33:27.563Z,20.43
2023-05-14T12:36:36.489Z,20.49
2023-05-14T12:39:42.911Z,20.48
2023-05-14T12:42:48.523Z,20.52
2023-05-14T12:45:55.725Z,20.59
2023-05-14T12:49:01.690Z,20.54
2023-05-14T12:55:19.669Z,20.50
2023-05-14T12:58:26.341Z,20.43
2023-05-14T13:01:32.260Z,20.36
2023-05-14T13:04:38.782Z,20.34
2023-05-14T13:07:47.269Z,20.46
2023-05-14T13:10:53.986Z,20.41
2023-05-14T13:13:59.526Z,20.53
2023-05-14T13:17:08.366Z,20.61
2023-05-14T13:20:14.901Z,20.59
2023-05-14T13:23:24.176Z,20.72
2023-05-14T13:26:29.921Z,20.69
2023-05-14T13:29:36.555Z,20.76
2023-05-14T13:32:42.385Z,20.80
2023-05-14T13:35:49.241Z,20.58
2023-05-14T13:38:58.057Z,20.58
2023-05-14T13:42:04.572Z,20.55
2023-05-14T13:45:12.120Z,20.56
2023-05-14T13:48:18.815Z,20.27
2023-05-14T13:51:25.300Z,20.56
2023-05-14T13:54:34.698Z,20.48
2023-05-14T13:57:40.580Z,20.40
2023-05-14T14:00:47.185Z,20.38
2023-05-14T14:03:52.899Z,20.25
2023-05-14T14:06:59.507Z,20.32
2023-05-14T14:10:09.281Z,20.40
2023-05-14T14:13:16.204Z,20.48
2023-05-14T14:16:22.122Z,20.43
2023-05-14T14:19:28.874Z,20.53
2023-05-14T14:22:34.895Z,20.48
2023-05-14T14:25:44.305Z,20.46
2023-05-14T14:28:50.167Z,20.50
2023-05-14T14:31:57.749Z,20.44
2023-05-14T14:35:03.630Z,20.34
2023-05-14T14:38:11.713Z,20.25
2023-05-14T14:41:20.205Z,20.12
2023-05-14T14:44:27.203Z,19.94
2023-05-14T14:47:33.480Z,19.90
2023-05-14T14:50:40.377Z,19.82
2023-05-14T14:53:46.564Z,19.77
2023-05-14T14:56:56.106Z,19.62
2023-05-14T15:00:03.980Z,19.48
2023-05-14T15:03:11.451Z,19.43
2023-05-14T15:06:17.584Z,19.36
2023-05-14T15:09:24.947Z,19.27
2023-05-14T15:12:33.836Z,19.30
2023-05-14T15:15:40.735Z,19.31
2023-05-14T15:18:46.950Z,19.27
2023-05-14T15:21:54.474Z,19.09
2023-05-14T15:25:00.725Z,18.93
2023-05-14T15:28:11.188Z,18.89
2023-05-14T15:31:17.155Z,18.84
2023-05-14T15:34:23.734Z,18.79
2023-05-14T15:37:30.191Z,18.82
2023-05-14T15:40:36.889Z,18.78
2023-05-14T15:43:45.716Z,18.70
2023-05-14T15:46:52.500Z,18.71
2023-05-14T15:49:58.756Z,18.74
2023-05-14T15:53:05.374Z,18.73
2023-05-14T15:56:11.591Z,18.28
2023-05-14T15:59:20.948Z,18.61
2023-05-14T16:02:26.542Z,18.57
2023-05-14T16:05:33.376Z,18.56
2023-05-14T16:08:39.054Z,18.50
2023-05-14T16:11:46.007Z,18.39
2023-05-14T16:14:57.881Z,18.32
2023-05-14T16:18:04.800Z,18.25
2023-05-14T16:21:12.278Z,18.17
2023-05-14T16:24:21.967Z,18.16
2023-05-14T16:27:27.779Z,17.98
2023-05-14T16:30:37.358Z,18.01
2023-05-14T16:33:43.207Z,17.92
2023-05-14T16:36:49.908Z,17.86
2023-05-14T16:39:56.080Z,17.75
2023-05-14T16:43:02.716Z,17.68
2023-05-14T16:46:11.817Z,17.66
2023-05-14T16:49:22.599Z,17.63
2023-05-14T16:52:29.348Z,17.55
2023-05-14T16:55:36.449Z,17.53
2023-05-14T16:58:42.350Z,17.50
2023-05-14T17:01:52.097Z,17.50
2023-05-14T17:04:58.333Z,17.48
2023-05-14T17:08:05.233Z,17.43
2023-05-14T17:11:11.155Z,17.40
2023-05-14T17:14:17.834Z,17.30
2023-05-14T17:17:27.120Z,17.22
2023-05-14T17:20:34.160Z,17.14
2023-05-14T17:23:39.989Z,17.12
2023-05-14T17:26:47.520Z,17.09
2023-05-14T17:29:54.411Z,17.07
2023-05-14T17:33:04.352Z,17.06
2023-05-14T17:36:11.362Z,17.04
2023-05-14T17:39:18.647Z,16.98
2023-05-14T17:42:25.086Z,16.96
2023-05-14T17:45:39.374Z,16.92
2023-05-14T17:48:55.877Z,16.88
2023-05-14T17:52:06.515Z,16.72
2023-05-14T17:55:13.184Z,16.82
2023-05-14T17:58:20.148Z,16.66
2023-05-14T18:01:26.292Z,16.50
2023-05-14T18:04:36.079Z,16.48
2023-05-14T18:07:45.066Z,16.26
2023-05-14T18:10:52.604Z,16.09
2023-05-14T18:14:00.338Z,15.85
2023-05-14T18:17:09.218Z,15.70
2023-05-14T18:20:19.887Z,15.50
2023-05-14T18:23:27.493Z,15.24
2023-05-14T18:26:34.334Z,15.04
2023-05-14T18:29:42.940Z,14.76
2023-05-14T18:32:49.122Z,14.64
2023-05-14T18:36:00.834Z,14.46
2023-05-14T18:39:07.923Z,14.41
2023-05-14T18:42:16.978Z,14.30
2023-05-14T18:45:24.603Z,14.23
2023-05-14T18:48:34.647Z,14.14
2023-05-14T18:51:44.288Z,14.14
2023-05-14T18:54:51.136Z,14.12
2023-05-14T18:57:57.800Z,14.10
2023-05-14T19:01:06.011Z,14.09
2023-05-14T19:04:12.640Z,14.08
2023-05-14T19:07:23.237Z,13.95
2023-05-14T19:10:31.958Z,13.98
2023-05-14T19:13:46.888Z,13.88
2023-05-14T19:16:53.158Z,13.71
2023-05-14T19:20:00.722Z,13.58
2023-05-14T19:23:14.200Z,13.40
2023-05-14T19:26:22.721Z,13.26
2023-05-14T19:29:29.216Z,13.12
2023-05-14T19:32:39.391Z,13.03
2023-05-14T19:35:46.208Z,12.94
2023-05-14T19:38:55.794Z,12.83
2023-05-14T19:42:03.971Z,12.80
2023-05-14T19:45:11.678Z,12.78
2023-05-14T19:48:20.607Z,12.80
2023-05-14T19:51:28.218Z,12.83
2023-05-14T19:54:39.497Z,12.83
2023-05-14T19:57:47.017Z,12.82
2023-05-14T20:00:57.556Z,12.82
2023-05-14T20:04:04.357Z,12.73
2023-05-14T20:07:12.256Z,12.76
2023-05-14T20:10:22.313Z,12.68
2023-05-14T20:13:28.202Z,12.75
2023-05-14T20:16:35.278Z,12.74
2023-05-14T20:19:41.976Z,12.73
2023-05-14T20:22:49.265Z,12.72
2023-05-14T20:25:58.765Z,12.70
2023-05-14T20:29:06.051Z,12.69
2023-05-14T20:32:13.820Z,12.65
2023-05-14T20:35:21.872Z,12.59
2023-05-14T20:38:29.650Z,12.52
2023-05-14T20:41:39.687Z,12.52
2023-05-14T20:44:45.524Z,12.39
2023-05-14T20:47:53.561Z,12.38
2023-05-14T20:50:59.639Z,12.37
2023-05-14T20:54:06.654Z,12.24
2023-05-14T20:57:16.568Z,12.07
2023-05-14T21:00:23.912Z,11.78
2023-05-14T21:03:29.934Z,11.58
2023-05-14T21:06:36.940Z,11.43
2023-05-14T21:09:44.256Z,11.12
2023-05-14T21:12:54.019Z,11.02
2023-05-14T21:16:00.632Z,10.95
2023-05-14T21:19:07.307Z,10.85
2023-05-14T21:22:13.020Z,10.86
2023-05-14T21:25:19.669Z,10.88
2023-05-14T21:28:28.155Z,10.92
2023-05-14T21:31:34.649Z,10.93
2023-05-14T21:34:40.471Z,10.94
2023-05-14T21:37:47.027Z,11.00
2023-05-14T21:40:52.942Z,11.04
2023-05-14T21:44:02.108Z,10.99
2023-05-14T21:47:08.526Z,11.00
2023-05-14T21:50:14.961Z,11.02
2023-05-14T21:53:20.495Z,10.93
2023-05-14T21:56:27.681Z,10.87
2023-05-14T21:59:37.191Z,10.86
2023-05-14T22:02:43.599Z,10.79
2023-05-14T22:05:49.558Z,10.59
2023-05-14T22:08:56.071Z,10.65
2023-05-14T22:12:01.616Z,10.78
2023-05-14T22:15:13.055Z,10.78
2023-05-14T22:18:18.650Z,10.81
2023-05-14T22:21:24.976Z,10.85
2023-05-14T22:24:30.500Z,10.87
2023-05-14T22:27:37.015Z,10.83
2023-05-14T22:30:45.648Z,10.91
2023-05-14T22:33:51.956Z,10.94
2023-05-14T22:36:57.782Z,10.91
2023-05-14T22:40:05.432Z,10.96
2023-05-14T22:43:11.497Z,11.03
2023-05-14T22:46:21.471Z,11.09
2023-05-14T22:49:26.955Z,11.13
2023-05-14T22:52:33.536Z,11.08
2023-05-14T22:55:39.157Z,11.14
2023-05-14T22:58:45.705Z,11.18
2023-05-14T23:01:54.029Z,11.18
2023-05-14T23:05:00.464Z,11.15
2023-05-14T23:08:06.216Z,11.18
2023-05-14T23:11:12.627Z,11.15
2023-05-14T23:14:18.578Z,11.06
2023-05-14T23:17:27.849Z,11.13
2023-05-14T23:20:33.759Z,11.18
2023-05-14T23:23:40.083Z,11.22
2023-05-14T23:26:45.883Z,11.23
2023-05-14T23:29:52.392Z,11.25
2023-05-14T23:33:00.794Z,11.26
2023-05-14T23:36:07.572Z,11.23
2023-05-14T23:39:13.509Z,11.17
2023-05-14T23:42:20.434Z,11.29
2023-05-14T23:45:26.113Z,11.35
2023-05-14T23:48:35.712Z,11.38
2023-05-14T23:51:41.297Z,11.42
2023-05-14T23:54:47.758Z,11.42
2023-05-14T23:57:53.452Z,11.47
